sensor_id;sensor_type;location;lat;lon;timestamp;temperature;humidity
25332;DHT22;13284;52.748;13.452;2022-07-06T00:01:46;16.00;99.90
25332;DHT22;13284;52.748;13.452;2022-07-06T00:04:12;15.90;99.90
25332;DHT22;13284;52.748;13.452;2022-07-06T00:06:37;15.80;99.90
25332;DHT22;13284;52.748;13.452;2022-07-06T00:09:04;15.80;99.90
25332;DHT22;13284;52.748;13.452;2022-07-06T00:11:29;15.80;99.90
25332;DHT22;13284;52.748;13.452;2022-07-06T00:13:55;15.90;99.90
25332;DHT22;13284;52.748;13.452;2022-07-06T00:16:22;15.80;99.90
25332;DHT22;13284;52.748;13.452;2022-07-06T00:18:48;15.70;99.90
25332;DHT22;13284;52.748;13.452;2022-07-06T00:21:14;15.70;99.90
25332;DHT22;13284;52.748;13.452;2022-07-06T00:23:39;15.40;99.90
25332;DHT22;13284;52.748;13.452;2022-07-06T00:26:05;15.30;99.90
25332;DHT22;13284;52.748;13.452;2022-07-06T00:28:31;15.20;99.90
25332;DHT22;13284;52.748;13.452;2022-07-06T00:30:56;15.10;99.90
25332;DHT22;13284;52.748;13.452;2022-07-06T00:33:21;15.10;99.90
25332;DHT22;13284;52.748;13.452;2022-07-06T00:35:48;15.10;99.90
25332;DHT22;13284;52.748;13.452;2022-07-06T00:38:13;15.10;99.90
25332;DHT22;13284;52.748;13.452;2022-07-06T00:40:39;15.20;99.90
25332;DHT22;13284;52.748;13.452;2022-07-06T00:43:05;15.20;99.90
25332;DHT22;13284;52.748;13.452;2022-07-06T00:45:30;15.40;99.90
25332;DHT22;13284;52.748;13.452;2022-07-06T00:47:56;15.40;99.90
25332;DHT22;13284;52.748;13.452;2022-07-06T00:50:22;15.40;99.90
25332;DHT22;13284;52.748;13.452;2022-07-06T00:52:51;15.40;99.90
25332;DHT22;13284;52.748;13.452;2022-07-06T00:55:22;15.30;99.90
25332;DHT22;13284;52.748;13.452;2022-07-06T00:57:48;15.20;99.90
25332;DHT22;13284;52.748;13.452;2022-07-06T01:00:16;15.00;99.90
25332;DHT22;13284;52.748;13.452;2022-07-06T01:02:42;14.90;99.90
25332;DHT22;13284;52.748;13.452;2022-07-06T01:05:09;14.70;99.90
25332;DHT22;13284;52.748;13.452;2022-07-06T01:07:36;14.80;99.90
25332;DHT22;13284;52.748;13.452;2022-07-06T01:10:03;14.90;99.90
25332;DHT22;13284;52.748;13.452;2022-07-06T01:12:30;15.00;99.90
25332;DHT22;13284;52.748;13.452;2022-07-06T01:14:56;15.00;99.90
25332;DHT22;13284;52.748;13.452;2022-07-06T01:17:21;15.10;99.90
25332;DHT22;13284;52.748;13.452;2022-07-06T01:19:47;15.10;99.90
25332;DHT22;13284;52.748;13.452;2022-07-06T01:22:13;15.20;99.90
25332;DHT22;13284;52.748;13.452;2022-07-06T01:24:38;15.20;99.90
25332;DHT22;13284;52.748;13.452;2022-07-06T01:27:05;15.20;99.90
25332;DHT22;13284;52.748;13.452;2022-07-06T01:29:31;15.30;99.90
25332;DHT22;13284;52.748;13.452;2022-07-06T01:31:57;15.40;99.90
25332;DHT22;13284;52.748;13.452;2022-07-06T01:34:23;15.40;99.90
25332;DHT22;13284;52.748;13.452;2022-07-06T01:36:49;15.50;99.90
25332;DHT22;13284;52.748;13.452;2022-07-06T01:39:14;15.60;99.90
25332;DHT22;13284;52.748;13.452;2022-07-06T01:41:40;15.60;99.90
25332;DHT22;13284;52.748;13.452;2022-07-06T01:44:05;15.50;99.90
25332;DHT22;13284;52.748;13.452;2022-07-06T01:46:31;15.50;99.90
25332;DHT22;13284;52.748;13.452;2022-07-06T01:48:56;15.50;99.90
25332;DHT22;13284;52.748;13.452;2022-07-06T01:51:23;15.60;99.90
25332;DHT22;13284;52.748;13.452;2022-07-06T01:53:49;15.60;99.90
25332;DHT22;13284;52.748;13.452;2022-07-06T01:56:15;15.70;99.90
25332;DHT22;13284;52.748;13.452;2022-07-06T01:58:41;15.70;99.90
25332;DHT22;13284;52.748;13.452;2022-07-06T02:01:08;15.80;99.90
25332;DHT22;13284;52.748;13.452;2022-07-06T02:03:34;15.80;99.90
25332;DHT22;13284;52.748;13.452;2022-07-06T02:06:00;15.90;99.90
25332;DHT22;13284;52.748;13.452;2022-07-06T02:08:25;15.90;99.90
25332;DHT22;13284;52.748;13.452;2022-07-06T02:10:51;15.90;99.90
25332;DHT22;13284;52.748;13.452;2022-07-06T02:13:16;15.90;99.90
25332;DHT22;13284;52.748;13.452;2022-07-06T02:15:42;16.00;99.90
25332;DHT22;13284;52.748;13.452;2022-07-06T02:18:07;16.00;99.90
25332;DHT22;13284;52.748;13.452;2022-07-06T02:20:33;16.00;99.90
25332;DHT22;13284;52.748;13.452;2022-07-06T02:22:58;16.10;99.90
25332;DHT22;13284;52.748;13.452;2022-07-06T02:25:24;16.00;99.90
25332;DHT22;13284;52.748;13.452;2022-07-06T02:27:49;16.10;99.90
25332;DHT22;13284;52.748;13.452;2022-07-06T02:30:15;16.10;99.90
25332;DHT22;13284;52.748;13.452;2022-07-06T02:32:40;16.20;99.90
25332;DHT22;13284;52.748;13.452;2022-07-06T02:35:06;16.10;99.90
25332;DHT22;13284;52.748;13.452;2022-07-06T02:37:32;16.10;99.90
25332;DHT22;13284;52.748;13.452;2022-07-06T02:39:57;16.10;99.90
25332;DHT22;13284;52.748;13.452;2022-07-06T02:42:23;16.00;99.90
25332;DHT22;13284;52.748;13.452;2022-07-06T02:44:48;16.00;99.90
25332;DHT22;13284;52.748;13.452;2022-07-06T02:47:14;16.00;99.90
25332;DHT22;13284;52.748;13.452;2022-07-06T02:49:39;16.10;99.90
25332;DHT22;13284;52.748;13.452;2022-07-06T02:52:05;16.10;99.90
25332;DHT22;13284;52.748;13.452;2022-07-06T02:54:30;16.10;99.90
25332;DHT22;13284;52.748;13.452;2022-07-06T02:56:56;16.10;99.90
25332;DHT22;13284;52.748;13.452;2022-07-06T02:59:21;16.10;99.90
25332;DHT22;13284;52.748;13.452;2022-07-06T03:01:47;16.10;99.90
25332;DHT22;13284;52.748;13.452;2022-07-06T03:04:12;16.10;99.90
25332;DHT22;13284;52.748;13.452;2022-07-06T03:06:37;16.10;99.90
25332;DHT22;13284;52.748;13.452;2022-07-06T03:09:03;16.10;99.90
25332;DHT22;13284;52.748;13.452;2022-07-06T03:11:28;16.10;99.90
25332;DHT22;13284;52.748;13.452;2022-07-06T03:13:54;16.10;99.90
25332;DHT22;13284;52.748;13.452;2022-07-06T03:16:19;16.10;99.90
25332;DHT22;13284;52.748;13.452;2022-07-06T03:18:45;16.10;99.90
25332;DHT22;13284;52.748;13.452;2022-07-06T03:21:10;16.00;99.90
25332;DHT22;13284;52.748;13.452;2022-07-06T03:23:36;16.00;99.90
25332;DHT22;13284;52.748;13.452;2022-07-06T03:26:01;16.00;99.90
25332;DHT22;13284;52.748;13.452;2022-07-06T03:28:27;15.90;99.90
25332;DHT22;13284;52.748;13.452;2022-07-06T03:30:52;15.90;99.90
25332;DHT22;13284;52.748;13.452;2022-07-06T03:33:18;15.90;99.90
25332;DHT22;13284;52.748;13.452;2022-07-06T03:35:43;15.90;99.90
25332;DHT22;13284;52.748;13.452;2022-07-06T03:38:09;15.90;99.90
25332;DHT22;13284;52.748;13.452;2022-07-06T03:40:34;16.00;99.90
25332;DHT22;13284;52.748;13.452;2022-07-06T03:43:00;16.00;99.90
25332;DHT22;13284;52.748;13.452;2022-07-06T03:45:25;16.00;99.90
25332;DHT22;13284;52.748;13.452;2022-07-06T03:47:51;15.90;99.90
25332;DHT22;13284;52.748;13.452;2022-07-06T03:50:16;15.80;99.90
25332;DHT22;13284;52.748;13.452;2022-07-06T03:52:42;15.90;99.90
25332;DHT22;13284;52.748;13.452;2022-07-06T03:55:11;15.80;99.90
25332;DHT22;13284;52.748;13.452;2022-07-06T03:57:38;15.80;99.90
25332;DHT22;13284;52.748;13.452;2022-07-06T04:00:04;15.80;99.90
25332;DHT22;13284;52.748;13.452;2022-07-06T04:02:30;15.90;99.90
25332;DHT22;13284;52.748;13.452;2022-07-06T04:04:55;16.00;99.90
25332;DHT22;13284;52.748;13.452;2022-07-06T04:07:21;15.90;99.90
25332;DHT22;13284;52.748;13.452;2022-07-06T04:09:47;15.90;99.90
25332;DHT22;13284;52.748;13.452;2022-07-06T04:12:12;15.90;99.90
25332;DHT22;13284;52.748;13.452;2022-07-06T04:14:38;15.90;99.90
25332;DHT22;13284;52.748;13.452;2022-07-06T04:17:04;16.00;99.90
25332;DHT22;13284;52.748;13.452;2022-07-06T04:19:49;15.90;99.90
25332;DHT22;13284;52.748;13.452;2022-07-06T04:22:15;15.90;99.90
25332;DHT22;13284;52.748;13.452;2022-07-06T04:24:41;16.00;99.90
25332;DHT22;13284;52.748;13.452;2022-07-06T04:27:06;16.00;99.90
25332;DHT22;13284;52.748;13.452;2022-07-06T04:29:32;16.10;99.90
25332;DHT22;13284;52.748;13.452;2022-07-06T04:31:57;16.10;99.90
25332;DHT22;13284;52.748;13.452;2022-07-06T04:34:23;16.30;99.90
25332;DHT22;13284;52.748;13.452;2022-07-06T04:36:48;16.30;99.90
25332;DHT22;13284;52.748;13.452;2022-07-06T04:39:14;16.50;99.90
25332;DHT22;13284;52.748;13.452;2022-07-06T04:41:39;16.30;99.90
25332;DHT22;13284;52.748;13.452;2022-07-06T04:44:05;16.30;99.90
25332;DHT22;13284;52.748;13.452;2022-07-06T04:46:30;16.20;99.90
25332;DHT22;13284;52.748;13.452;2022-07-06T04:48:56;16.40;99.90
25332;DHT22;13284;52.748;13.452;2022-07-06T04:51:21;16.60;99.90
25332;DHT22;13284;52.748;13.452;2022-07-06T04:53:47;16.60;99.90
25332;DHT22;13284;52.748;13.452;2022-07-06T04:56:12;16.60;99.90
25332;DHT22;13284;52.748;13.452;2022-07-06T04:58:38;16.70;99.90
25332;DHT22;13284;52.748;13.452;2022-07-06T05:01:03;16.70;99.90
25332;DHT22;13284;52.748;13.452;2022-07-06T05:03:29;16.70;99.90
25332;DHT22;13284;52.748;13.452;2022-07-06T05:05:54;16.90;99.90
25332;DHT22;13284;52.748;13.452;2022-07-06T05:08:20;16.90;99.90
25332;DHT22;13284;52.748;13.452;2022-07-06T05:10:45;16.80;99.90
25332;DHT22;13284;52.748;13.452;2022-07-06T05:13:11;17.00;99.90
25332;DHT22;13284;52.748;13.452;2022-07-06T05:15:36;17.20;99.90
25332;DHT22;13284;52.748;13.452;2022-07-06T05:18:02;17.30;99.90
25332;DHT22;13284;52.748;13.452;2022-07-06T05:20:28;17.40;99.90
25332;DHT22;13284;52.748;13.452;2022-07-06T05:22:54;17.70;99.90
25332;DHT22;13284;52.748;13.452;2022-07-06T05:25:19;17.60;99.90
25332;DHT22;13284;52.748;13.452;2022-07-06T05:27:45;17.50;99.90
25332;DHT22;13284;52.748;13.452;2022-07-06T05:30:11;17.60;99.90
25332;DHT22;13284;52.748;13.452;2022-07-06T05:32:36;17.70;99.90
25332;DHT22;13284;52.748;13.452;2022-07-06T05:35:02;17.70;99.90
25332;DHT22;13284;52.748;13.452;2022-07-06T05:37:27;17.80;99.90
25332;DHT22;13284;52.748;13.452;2022-07-06T05:39:53;17.80;99.90
25332;DHT22;13284;52.748;13.452;2022-07-06T05:42:18;18.30;99.90
25332;DHT22;13284;52.748;13.452;2022-07-06T05:44:44;18.20;99.90
25332;DHT22;13284;52.748;13.452;2022-07-06T05:47:09;18.60;99.90
25332;DHT22;13284;52.748;13.452;2022-07-06T05:49:53;18.70;99.90
25332;DHT22;13284;52.748;13.452;2022-07-06T05:52:37;18.30;99.90
25332;DHT22;13284;52.748;13.452;2022-07-06T05:55:03;18.30;99.90
25332;DHT22;13284;52.748;13.452;2022-07-06T05:57:28;18.50;99.90
25332;DHT22;13284;52.748;13.452;2022-07-06T05:59:54;18.70;99.90
25332;DHT22;13284;52.748;13.452;2022-07-06T06:02:19;19.10;99.90
25332;DHT22;13284;52.748;13.452;2022-07-06T06:04:45;18.90;99.90
25332;DHT22;13284;52.748;13.452;2022-07-06T06:07:10;19.10;99.90
25332;DHT22;13284;52.748;13.452;2022-07-06T06:09:36;19.20;99.90
25332;DHT22;13284;52.748;13.452;2022-07-06T06:12:02;19.10;99.90
25332;DHT22;13284;52.748;13.452;2022-07-06T06:14:27;19.30;99.90
25332;DHT22;13284;52.748;13.452;2022-07-06T06:16:53;19.30;99.90
25332;DHT22;13284;52.748;13.452;2022-07-06T06:19:18;19.40;99.90
25332;DHT22;13284;52.748;13.452;2022-07-06T06:21:44;19.40;99.90
25332;DHT22;13284;52.748;13.452;2022-07-06T06:24:09;19.60;99.90
25332;DHT22;13284;52.748;13.452;2022-07-06T06:26:34;19.60;99.90
25332;DHT22;13284;52.748;13.452;2022-07-06T06:29:00;19.70;99.90
25332;DHT22;13284;52.748;13.452;2022-07-06T06:31:25;19.60;99.90
25332;DHT22;13284;52.748;13.452;2022-07-06T06:33:51;19.30;99.90
25332;DHT22;13284;52.748;13.452;2022-07-06T06:36:18;19.80;99.90
25332;DHT22;13284;52.748;13.452;2022-07-06T06:38:43;20.30;99.90
25332;DHT22;13284;52.748;13.452;2022-07-06T06:41:09;20.00;99.90
25332;DHT22;13284;52.748;13.452;2022-07-06T06:43:34;20.10;99.90
25332;DHT22;13284;52.748;13.452;2022-07-06T06:46:00;20.60;99.90
25332;DHT22;13284;52.748;13.452;2022-07-06T06:48:25;20.80;99.90
25332;DHT22;13284;52.748;13.452;2022-07-06T06:50:51;20.50;99.90
25332;DHT22;13284;52.748;13.452;2022-07-06T06:53:16;19.60;99.90
25332;DHT22;13284;52.748;13.452;2022-07-06T06:55:42;19.50;99.90
25332;DHT22;13284;52.748;13.452;2022-07-06T06:58:07;19.40;99.90
25332;DHT22;13284;52.748;13.452;2022-07-06T07:00:33;18.80;99.90
25332;DHT22;13284;52.748;13.452;2022-07-06T07:02:58;18.30;99.90
25332;DHT22;13284;52.748;13.452;2022-07-06T07:05:24;18.80;99.90
25332;DHT22;13284;52.748;13.452;2022-07-06T07:07:50;19.30;99.90
25332;DHT22;13284;52.748;13.452;2022-07-06T07:10:15;19.20;99.90
25332;DHT22;13284;52.748;13.452;2022-07-06T07:12:45;19.60;99.90
25332;DHT22;13284;52.748;13.452;2022-07-06T07:15:11;19.60;99.90
25332;DHT22;13284;52.748;13.452;2022-07-06T07:17:37;19.70;99.90
25332;DHT22;13284;52.748;13.452;2022-07-06T07:20:03;19.90;99.90
25332;DHT22;13284;52.748;13.452;2022-07-06T07:22:29;19.80;99.90
25332;DHT22;13284;52.748;13.452;2022-07-06T07:24:54;19.70;99.90
25332;DHT22;13284;52.748;13.452;2022-07-06T07:27:20;19.70;99.90
25332;DHT22;13284;52.748;13.452;2022-07-06T07:29:45;19.60;99.90
25332;DHT22;13284;52.748;13.452;2022-07-06T07:32:11;19.80;99.90
25332;DHT22;13284;52.748;13.452;2022-07-06T07:34:36;20.10;99.90
25332;DHT22;13284;52.748;13.452;2022-07-06T07:37:02;20.00;99.90
25332;DHT22;13284;52.748;13.452;2022-07-06T07:39:28;19.90;99.90
25332;DHT22;13284;52.748;13.452;2022-07-06T07:41:53;19.80;99.90
25332;DHT22;13284;52.748;13.452;2022-07-06T07:44:19;20.40;99.90
25332;DHT22;13284;52.748;13.452;2022-07-06T07:46:44;20.60;99.90
25332;DHT22;13284;52.748;13.452;2022-07-06T07:49:10;20.30;99.90
25332;DHT22;13284;52.748;13.452;2022-07-06T07:51:35;19.70;99.90
25332;DHT22;13284;52.748;13.452;2022-07-06T07:54:01;19.70;99.90
25332;DHT22;13284;52.748;13.452;2022-07-06T07:56:26;19.60;99.90
25332;DHT22;13284;52.748;13.452;2022-07-06T07:58:52;19.90;99.90
25332;DHT22;13284;52.748;13.452;2022-07-06T08:01:17;20.10;99.90
25332;DHT22;13284;52.748;13.452;2022-07-06T08:03:43;20.00;99.90
25332;DHT22;13284;52.748;13.452;2022-07-06T08:06:08;20.40;99.90
25332;DHT22;13284;52.748;13.452;2022-07-06T08:08:34;20.90;99.90
25332;DHT22;13284;52.748;13.452;2022-07-06T08:11:00;21.00;99.90
25332;DHT22;13284;52.748;13.452;2022-07-06T08:13:25;21.20;99.90
25332;DHT22;13284;52.748;13.452;2022-07-06T08:15:53;21.30;99.90
25332;DHT22;13284;52.748;13.452;2022-07-06T08:18:19;21.30;99.90
25332;DHT22;13284;52.748;13.452;2022-07-06T08:20:44;21.30;99.90
25332;DHT22;13284;52.748;13.452;2022-07-06T08:23:10;21.60;99.90
25332;DHT22;13284;52.748;13.452;2022-07-06T08:25:35;21.80;99.90
25332;DHT22;13284;52.748;13.452;2022-07-06T08:28:01;22.00;99.90
25332;DHT22;13284;52.748;13.452;2022-07-06T08:30:27;21.10;99.90
25332;DHT22;13284;52.748;13.452;2022-07-06T08:32:52;20.70;99.90
25332;DHT22;13284;52.748;13.452;2022-07-06T08:35:18;20.70;99.90
25332;DHT22;13284;52.748;13.452;2022-07-06T08:37:43;20.50;99.90
25332;DHT22;13284;52.748;13.452;2022-07-06T08:40:10;20.30;99.90
25332;DHT22;13284;52.748;13.452;2022-07-06T08:42:36;19.90;99.90
25332;DHT22;13284;52.748;13.452;2022-07-06T08:45:04;19.60;99.90
25332;DHT22;13284;52.748;13.452;2022-07-06T08:47:31;19.40;99.90
25332;DHT22;13284;52.748;13.452;2022-07-06T08:49:58;19.40;99.90
25332;DHT22;13284;52.748;13.452;2022-07-06T08:52:24;19.60;99.90
25332;DHT22;13284;52.748;13.452;2022-07-06T08:54:50;19.60;99.90
25332;DHT22;13284;52.748;13.452;2022-07-06T08:57:16;19.70;99.90
25332;DHT22;13284;52.748;13.452;2022-07-06T08:59:42;19.90;99.90
25332;DHT22;13284;52.748;13.452;2022-07-06T09:02:10;19.90;99.90
25332;DHT22;13284;52.748;13.452;2022-07-06T09:04:36;20.00;99.90
25332;DHT22;13284;52.748;13.452;2022-07-06T09:07:03;19.90;99.90
25332;DHT22;13284;52.748;13.452;2022-07-06T09:09:29;19.70;99.90
25332;DHT22;13284;52.748;13.452;2022-07-06T09:11:58;19.70;99.90
25332;DHT22;13284;52.748;13.452;2022-07-06T09:14:24;19.40;99.90
25332;DHT22;13284;52.748;13.452;2022-07-06T09:17:02;19.20;99.90
25332;DHT22;13284;52.748;13.452;2022-07-06T09:19:32;19.10;99.90
25332;DHT22;13284;52.748;13.452;2022-07-06T09:21:58;18.80;99.90
25332;DHT22;13284;52.748;13.452;2022-07-06T09:24:24;18.60;99.90
25332;DHT22;13284;52.748;13.452;2022-07-06T09:26:54;18.50;99.90
25332;DHT22;13284;52.748;13.452;2022-07-06T09:29:30;18.40;99.90
25332;DHT22;13284;52.748;13.452;2022-07-06T09:32:00;18.50;99.90
25332;DHT22;13284;52.748;13.452;2022-07-06T09:34:44;18.60;99.90
25332;DHT22;13284;52.748;13.452;2022-07-06T09:37:10;18.60;99.90
25332;DHT22;13284;52.748;13.452;2022-07-06T09:39:36;18.60;99.90
25332;DHT22;13284;52.748;13.452;2022-07-06T09:42:03;18.50;99.90
25332;DHT22;13284;52.748;13.452;2022-07-06T09:44:37;18.80;99.90
25332;DHT22;13284;52.748;13.452;2022-07-06T09:47:10;18.90;99.90
25332;DHT22;13284;52.748;13.452;2022-07-06T09:49:36;19.20;99.90
25332;DHT22;13284;52.748;13.452;2022-07-06T09:52:07;19.50;99.90
25332;DHT22;13284;52.748;13.452;2022-07-06T09:54:34;19.80;99.90
25332;DHT22;13284;52.748;13.452;2022-07-06T09:57:00;20.20;99.90
25332;DHT22;13284;52.748;13.452;2022-07-06T09:59:28;20.30;99.90
25332;DHT22;13284;52.748;13.452;2022-07-06T10:01:55;20.30;99.90
25332;DHT22;13284;52.748;13.452;2022-07-06T10:04:23;20.20;99.90
25332;DHT22;13284;52.748;13.452;2022-07-06T10:06:52;20.20;99.90
25332;DHT22;13284;52.748;13.452;2022-07-06T10:09:19;20.00;99.90
25332;DHT22;13284;52.748;13.452;2022-07-06T10:12:00;20.10;99.90
25332;DHT22;13284;52.748;13.452;2022-07-06T10:14:30;20.30;99.90
25332;DHT22;13284;52.748;13.452;2022-07-06T10:17:00;20.60;99.90
25332;DHT22;13284;52.748;13.452;2022-07-06T10:19:28;20.80;99.90
25332;DHT22;13284;52.748;13.452;2022-07-06T10:21:54;20.70;99.90
25332;DHT22;13284;52.748;13.452;2022-07-06T10:24:21;20.40;99.90
25332;DHT22;13284;52.748;13.452;2022-07-06T10:26:47;20.90;99.90
25332;DHT22;13284;52.748;13.452;2022-07-06T10:29:14;20.50;99.90
25332;DHT22;13284;52.748;13.452;2022-07-06T10:31:45;20.80;99.90
25332;DHT22;13284;52.748;13.452;2022-07-06T10:34:13;20.50;99.90
25332;DHT22;13284;52.748;13.452;2022-07-06T10:36:41;20.40;99.90
25332;DHT22;13284;52.748;13.452;2022-07-06T10:39:07;20.30;99.90
25332;DHT22;13284;52.748;13.452;2022-07-06T10:41:52;20.10;99.90
25332;DHT22;13284;52.748;13.452;2022-07-06T10:44:23;20.20;99.90
25332;DHT22;13284;52.748;13.452;2022-07-06T10:46:53;20.30;99.90
25332;DHT22;13284;52.748;13.452;2022-07-06T10:49:19;20.30;99.90
25332;DHT22;13284;52.748;13.452;2022-07-06T10:51:49;21.10;99.90
25332;DHT22;13284;52.748;13.452;2022-07-06T10:54:16;21.70;99.90
25332;DHT22;13284;52.748;13.452;2022-07-06T10:56:44;21.60;99.90
25332;DHT22;13284;52.748;13.452;2022-07-06T10:59:18;21.40;99.90
25332;DHT22;13284;52.748;13.452;2022-07-06T11:02:12;21.20;99.90
25332;DHT22;13284;52.748;13.452;2022-07-06T11:04:39;20.50;99.90
25332;DHT22;13284;52.748;13.452;2022-07-06T11:07:13;19.80;99.90
25332;DHT22;13284;52.748;13.452;2022-07-06T11:09:39;19.40;99.90
25332;DHT22;13284;52.748;13.452;2022-07-06T11:12:18;19.00;99.90
25332;DHT22;13284;52.748;13.452;2022-07-06T11:14:44;18.70;99.90
25332;DHT22;13284;52.748;13.452;2022-07-06T11:17:12;18.60;99.90
25332;DHT22;13284;52.748;13.452;2022-07-06T11:19:38;18.50;99.90
25332;DHT22;13284;52.748;13.452;2022-07-06T11:22:08;18.50;99.90
25332;DHT22;13284;52.748;13.452;2022-07-06T11:24:37;18.50;99.90
25332;DHT22;13284;52.748;13.452;2022-07-06T11:27:03;18.60;99.90
25332;DHT22;13284;52.748;13.452;2022-07-06T11:29:30;18.40;99.90
25332;DHT22;13284;52.748;13.452;2022-07-06T11:31:59;18.60;99.90
25332;DHT22;13284;52.748;13.452;2022-07-06T11:34:32;18.60;99.90
25332;DHT22;13284;52.748;13.452;2022-07-06T11:37:03;18.90;99.90
25332;DHT22;13284;52.748;13.452;2022-07-06T11:39:31;19.30;99.90
25332;DHT22;13284;52.748;13.452;2022-07-06T11:41:57;19.80;99.90
25332;DHT22;13284;52.748;13.452;2022-07-06T11:44:23;19.60;99.90
25332;DHT22;13284;52.748;13.452;2022-07-06T11:46:49;19.90;99.90
25332;DHT22;13284;52.748;13.452;2022-07-06T11:49:15;20.30;99.90
25332;DHT22;13284;52.748;13.452;2022-07-06T11:51:42;20.40;99.90
25332;DHT22;13284;52.748;13.452;2022-07-06T11:54:13;20.70;99.90
25332;DHT22;13284;52.748;13.452;2022-07-06T11:56:50;21.20;99.90
25332;DHT22;13284;52.748;13.452;2022-07-06T11:59:39;22.30;99.80
25332;DHT22;13284;52.748;13.452;2022-07-06T12:02:07;22.50;99.90
25332;DHT22;13284;52.748;13.452;2022-07-06T12:04:37;22.50;99.90
25332;DHT22;13284;52.748;13.452;2022-07-06T12:07:11;23.00;99.90
25332;DHT22;13284;52.748;13.452;2022-07-06T12:09:39;22.80;99.40
25332;DHT22;13284;52.748;13.452;2022-07-06T12:12:06;22.70;99.80
25332;DHT22;13284;52.748;13.452;2022-07-06T12:14:34;22.80;99.90
25332;DHT22;13284;52.748;13.452;2022-07-06T12:17:08;22.40;99.70
25332;DHT22;13284;52.748;13.452;2022-07-06T12:19:36;22.40;99.90
25332;DHT22;13284;52.748;13.452;2022-07-06T12:22:02;21.90;99.90
25332;DHT22;13284;52.748;13.452;2022-07-06T12:24:29;21.50;99.90
25332;DHT22;13284;52.748;13.452;2022-07-06T12:27:05;21.90;99.90
25332;DHT22;13284;52.748;13.452;2022-07-06T12:29:34;21.70;99.90
25332;DHT22;13284;52.748;13.452;2022-07-06T12:31:59;21.90;99.90
25332;DHT22;13284;52.748;13.452;2022-07-06T12:34:27;21.50;99.40
25332;DHT22;13284;52.748;13.452;2022-07-06T12:36:57;21.40;99.50
25332;DHT22;13284;52.748;13.452;2022-07-06T12:39:25;21.80;99.70
25332;DHT22;13284;52.748;13.452;2022-07-06T12:41:55;22.10;98.60
25332;DHT22;13284;52.748;13.452;2022-07-06T12:44:24;22.80;98.60
25332;DHT22;13284;52.748;13.452;2022-07-06T12:47:01;23.00;98.80
25332;DHT22;13284;52.748;13.452;2022-07-06T12:49:27;23.00;98.00
25332;DHT22;13284;52.748;13.452;2022-07-06T12:52:28;22.80;97.20
25332;DHT22;13284;52.748;13.452;2022-07-06T12:54:50;22.70;96.00
25332;DHT22;13284;52.748;13.452;2022-07-06T12:57:24;22.70;94.80
25332;DHT22;13284;52.748;13.452;2022-07-06T13:02:29;23.10;94.60
25332;DHT22;13284;52.748;13.452;2022-07-06T13:05:06;22.50;95.10
25332;DHT22;13284;52.748;13.452;2022-07-06T13:07:34;21.90;95.90
25332;DHT22;13284;52.748;13.452;2022-07-06T13:10:06;21.50;97.20
25332;DHT22;13284;52.748;13.452;2022-07-06T13:12:32;21.10;97.70
25332;DHT22;13284;52.748;13.452;2022-07-06T13:15:00;21.20;97.50
25332;DHT22;13284;52.748;13.452;2022-07-06T13:17:26;21.10;97.70
25332;DHT22;13284;52.748;13.452;2022-07-06T13:19:51;21.30;97.60
25332;DHT22;13284;52.748;13.452;2022-07-06T13:22:17;21.00;97.60
25332;DHT22;13284;52.748;13.452;2022-07-06T13:24:43;21.10;98.20
25332;DHT22;13284;52.748;13.452;2022-07-06T13:27:09;21.00;98.70
25332;DHT22;13284;52.748;13.452;2022-07-06T13:29:35;20.80;98.00
25332;DHT22;13284;52.748;13.452;2022-07-06T13:32:01;20.90;98.00
25332;DHT22;13284;52.748;13.452;2022-07-06T13:34:27;21.00;98.10
25332;DHT22;13284;52.748;13.452;2022-07-06T13:36:53;21.10;97.90
25332;DHT22;13284;52.748;13.452;2022-07-06T13:39:19;22.20;98.00
25332;DHT22;13284;52.748;13.452;2022-07-06T13:41:44;22.70;96.20
25332;DHT22;13284;52.748;13.452;2022-07-06T13:44:10;23.50;96.60
25332;DHT22;13284;52.748;13.452;2022-07-06T13:46:38;23.70;95.30
25332;DHT22;13284;52.748;13.452;2022-07-06T13:49:07;23.40;95.20
25332;DHT22;13284;52.748;13.452;2022-07-06T13:51:33;23.00;95.30
25332;DHT22;13284;52.748;13.452;2022-07-06T13:53:59;22.80;95.10
25332;DHT22;13284;52.748;13.452;2022-07-06T13:56:26;22.90;95.10
25332;DHT22;13284;52.748;13.452;2022-07-06T13:58:52;23.00;94.40
25332;DHT22;13284;52.748;13.452;2022-07-06T14:01:17;22.50;95.10
25332;DHT22;13284;52.748;13.452;2022-07-06T14:03:43;22.30;95.60
25332;DHT22;13284;52.748;13.452;2022-07-06T14:06:09;21.80;96.00
25332;DHT22;13284;52.748;13.452;2022-07-06T14:08:36;21.20;96.30
25332;DHT22;13284;52.748;13.452;2022-07-06T14:11:02;20.90;97.40
25332;DHT22;13284;52.748;13.452;2022-07-06T14:13:28;20.90;97.30
25332;DHT22;13284;52.748;13.452;2022-07-06T14:15:54;20.60;98.10
25332;DHT22;13284;52.748;13.452;2022-07-06T14:18:20;20.50;98.50
25332;DHT22;13284;52.748;13.452;2022-07-06T14:20:49;20.50;98.80
25332;DHT22;13284;52.748;13.452;2022-07-06T14:23:16;20.20;99.00
25332;DHT22;13284;52.748;13.452;2022-07-06T14:25:42;20.10;98.90
25332;DHT22;13284;52.748;13.452;2022-07-06T14:28:09;20.00;98.70
25332;DHT22;13284;52.748;13.452;2022-07-06T14:30:35;19.80;98.70
25332;DHT22;13284;52.748;13.452;2022-07-06T14:33:08;19.70;98.90
25332;DHT22;13284;52.748;13.452;2022-07-06T14:35:35;19.80;99.20
25332;DHT22;13284;52.748;13.452;2022-07-06T14:38:02;19.80;99.50
25332;DHT22;13284;52.748;13.452;2022-07-06T14:40:28;19.80;99.70
25332;DHT22;13284;52.748;13.452;2022-07-06T14:42:54;19.70;99.90
25332;DHT22;13284;52.748;13.452;2022-07-06T14:45:19;19.60;99.90
25332;DHT22;13284;52.748;13.452;2022-07-06T14:47:44;19.60;99.90
25332;DHT22;13284;52.748;13.452;2022-07-06T14:50:10;19.40;99.90
25332;DHT22;13284;52.748;13.452;2022-07-06T14:52:35;19.40;99.90
25332;DHT22;13284;52.748;13.452;2022-07-06T14:55:01;19.40;99.90
25332;DHT22;13284;52.748;13.452;2022-07-06T14:57:27;19.50;99.90
25332;DHT22;13284;52.748;13.452;2022-07-06T14:59:52;19.40;99.90
25332;DHT22;13284;52.748;13.452;2022-07-06T15:02:20;19.20;99.90
25332;DHT22;13284;52.748;13.452;2022-07-06T15:04:46;19.20;99.90
25332;DHT22;13284;52.748;13.452;2022-07-06T15:07:11;19.20;99.90
25332;DHT22;13284;52.748;13.452;2022-07-06T15:09:37;19.20;99.90
25332;DHT22;13284;52.748;13.452;2022-07-06T15:12:03;18.90;99.90
25332;DHT22;13284;52.748;13.452;2022-07-06T15:14:29;18.90;99.90
25332;DHT22;13284;52.748;13.452;2022-07-06T15:16:54;18.90;99.90